Time;durP1;ratioP1;P1;durP2;ratioP2;P2;SDS_P1;SDS_P2;PMS_P1;PMS_P2;Temp;Humidity;BMP_temperature;BMP_pressure;BME280_temperature;BME280_humidity;BME280_pressure;Samples;Min_cycle;Max_cycle;Signal;HPM_P1;HPM_P2
2023/01/15 00:00:37;;;;;;;7.60;2.88;;;;;;;4.85;100.00;99762.66;6154479;23;20012;-87
2023/01/15 00:03:03;;;;;;;8.70;2.75;;;;;;;4.79;100.00;99763.81;6181244;23;20033;-87
2023/01/15 00:05:28;;;;;;;7.20;2.58;;;;;;;4.72;100.00;99760.59;6154398;23;20006;-86
2023/01/15 00:07:54;;;;;;;5.38;2.60;;;;;;;4.74;100.00;99756.09;6179166;23;20009;-88
2023/01/15 00:10:19;;;;;;;8.90;3.05;;;;;;;4.63;100.00;99744.31;6156241;23;20005;-86
2023/01/15 00:12:44;;;;;;;6.05;2.95;;;;;;;4.66;100.00;99750.31;6180394;23;20005;-86
2023/01/15 00:15:10;;;;;;;11.52;3.70;;;;;;;4.58;100.00;99736.63;6180175;23;20076;-87
2023/01/15 00:17:35;;;;;;;7.75;2.95;;;;;;;4.57;100.00;99744.59;6179554;23;20023;-86
2023/01/15 00:20:00;;;;;;;11.23;3.28;;;;;;;4.62;100.00;99745.25;6179464;23;20009;-86
2023/01/15 00:22:27;;;;;;;7.90;2.90;;;;;;;4.49;100.00;99734.38;6178507;23;20084;-87
2023/01/15 00:27:39;;;;;;;11.38;3.30;;;;;;;4.50;100.00;99747.50;6180463;23;20052;-86
2023/01/15 00:30:06;;;;;;;6.53;2.55;;;;;;;4.37;100.00;99717.34;6177688;23;20012;-86
2023/01/15 00:32:31;;;;;;;10.23;3.08;;;;;;;4.38;100.00;99740.09;6177325;23;20001;-86
2023/01/15 00:34:58;;;;;;;7.93;2.80;;;;;;;4.42;100.00;99744.31;6178531;23;20012;-85
2023/01/15 00:37:23;;;;;;;8.15;2.70;;;;;;;4.31;100.00;99716.75;6151871;23;20043;-86
2023/01/15 00:39:48;;;;;;;11.10;3.38;;;;;;;4.38;100.00;99734.00;6178656;23;20419;-86
2023/01/15 00:42:16;;;;;;;9.38;2.92;;;;;;;4.32;100.00;99727.22;6178139;23;20009;-86
2023/01/15 00:44:42;;;;;;;9.90;2.85;;;;;;;4.35;100.00;99742.91;6179019;23;20485;-87
2023/01/15 00:47:13;;;;;;;7.32;2.83;;;;;;;4.34;100.00;99756.97;6152406;23;20008;-86
2023/01/15 00:49:38;;;;;;;11.40;3.30;;;;;;;4.29;100.00;99745.78;6178534;23;20940;-87
2023/01/15 00:52:03;;;;;;;5.93;2.55;;;;;;;4.36;100.00;99760.41;6178225;23;20032;-87
2023/01/15 00:54:29;;;;;;;9.25;3.00;;;;;;;4.30;100.00;99759.81;6178010;23;20004;-85
2023/01/15 00:56:54;;;;;;;7.63;2.50;;;;;;;4.25;100.00;99760.00;6178987;23;20009;-87
2023/01/15 00:59:19;;;;;;;11.07;2.63;;;;;;;4.30;100.00;99767.69;6178056;23;20102;-86
2023/01/15 01:01:44;;;;;;;8.57;2.63;;;;;;;4.38;100.00;99770.88;6179145;23;20001;-87
2023/01/15 01:04:10;;;;;;;10.13;2.67;;;;;;;4.34;100.00;99762.25;6179669;23;20005;-87
2023/01/15 01:06:35;;;;;;;10.40;2.78;;;;;;;4.28;100.00;99757.25;6153480;23;20040;-87
2023/01/15 01:09:00;;;;;;;8.02;2.97;;;;;;;4.36;100.00;99759.56;6153151;23;20000;-88
2023/01/15 01:11:27;;;;;;;9.07;2.53;;;;;;;4.45;100.00;99769.69;6186209;23;20001;-87
2023/01/15 01:13:54;;;;;;;9.18;2.95;;;;;;;4.47;100.00;99771.34;6190539;23;20013;-87
2023/01/15 01:16:36;;;;;;;15.60;3.63;;;;;;;4.39;100.00;99772.56;6191222;23;20005;-87
2023/01/15 01:19:05;;;;;;;7.72;3.20;;;;;;;4.35;100.00;99753.44;6202703;23;19994;-87
2023/01/15 01:21:30;;;;;;;9.95;3.30;;;;;;;4.37;100.00;99759.47;6178059;23;20001;-88
2023/01/15 01:23:59;;;;;;;7.93;2.70;;;;;;;4.46;100.00;99777.53;6196256;23;20100;-88
2023/01/15 01:26:26;;;;;;;9.90;2.83;;;;;;;4.45;100.00;99769.69;6178126;23;20076;-89
2023/01/15 01:28:52;;;;;;;8.30;3.10;;;;;;;4.49;100.00;99766.00;6177846;23;20001;-88
2023/01/15 01:31:19;;;;;;;13.15;2.75;;;;;;;4.54;100.00;99763.16;6178079;23;20326;-89
2023/01/15 01:33:47;;;;;;;12.02;3.15;;;;;;;4.45;100.00;99749.47;6153745;23;20001;-87
2023/01/15 01:36:12;;;;;;;12.82;2.83;;;;;;;4.46;100.00;99763.50;6153384;23;20020;-87
2023/01/15 01:38:38;;;;;;;10.65;3.10;;;;;;;4.57;100.00;99773.59;6179182;23;20005;-88
2023/01/15 01:41:03;;;;;;;10.40;2.53;;;;;;;4.46;100.00;99755.59;6178712;23;20477;-87
2023/01/15 01:43:29;;;;;;;9.65;2.63;;;;;;;4.45;100.00;99765.28;6179339;23;20005;-88
2023/01/15 01:45:55;;;;;;;11.98;3.15;;;;;;;4.54;100.00;99778.97;6179537;23;20005;-87
2023/01/15 01:48:27;;;;;;;9.93;2.70;;;;;;;4.54;100.00;99781.63;6179105;23;20063;-88
2023/01/15 01:50:55;;;;;;;9.27;2.80;;;;;;;4.54;100.00;99774.56;6189526;23;19989;-89
2023/01/15 01:53:25;;;;;;;10.27;2.97;;;;;;;4.47;100.00;99767.84;6205932;23;20003;-88
2023/01/15 01:55:52;;;;;;;11.13;3.08;;;;;;;4.51;100.00;99750.97;6206329;23;20004;-88
2023/01/15 01:58:19;;;;;;;10.10;2.70;;;;;;;4.53;100.00;99766.75;6205996;23;20061;-88
2023/01/15 02:00:49;;;;;;;8.40;2.58;;;;;;;4.49;100.00;99774.78;6203807;23;20036;-88
2023/01/15 02:03:16;;;;;;;10.52;2.78;;;;;;;4.53;100.00;99774.66;6203602;23;20009;-88
2023/01/15 02:05:51;;;;;;;8.55;3.08;;;;;;;4.55;100.00;99771.00;6202604;23;20036;-89
2023/01/15 02:08:16;;;;;;;8.98;2.67;;;;;;;4.50;100.00;99768.56;6182701;23;20075;-88
2023/01/15 02:10:52;;;;;;;10.02;2.75;;;;;;;4.46;100.00;99771.41;6181821;23;20426;-90
2023/01/15 02:13:26;;;;;;;8.10;2.97;;;;;;;4.54;100.00;99773.72;6182908;23;20005;-89
2023/01/15 02:16:18;;;;;;;7.78;2.83;;;;;;;4.50;100.00;99781.75;6183038;23;20011;-89
2023/01/15 02:19:29;;;;;;;6.82;2.63;;;;;;;4.49;100.00;99782.66;6154678;23;20419;-90
2023/01/15 02:22:15;;;;;;;6.70;2.80;;;;;;;4.58;100.00;99781.41;6143503;23;20100;-88
2023/01/15 02:25:07;;;;;;;9.27;2.72;;;;;;;4.49;100.00;99776.56;6180498;23;20012;-87
2023/01/15 02:27:33;;;;;;;10.10;2.92;;;;;;;4.54;100.00;99785.09;6153999;23;20014;-89
2023/01/15 02:30:02;;;;;;;13.27;3.28;;;;;;;4.55;100.00;99765.72;6180045;23;20076;-89
2023/01/15 02:32:42;;;;;;;8.32;2.60;;;;;;;4.48;100.00;99761.66;6179355;23;20036;-88
2023/01/15 02:35:20;;;;;;;12.10;3.15;;;;;;;4.59;100.00;99762.03;6179121;23;20327;-89
2023/01/15 02:37:51;;;;;;;9.32;3.22;;;;;;;4.56;100.00;99767.47;6179670;23;20084;-89
2023/01/15 02:40:19;;;;;;;9.27;3.00;;;;;;;4.54;100.00;99763.16;6178490;23;20004;-89
2023/01/15 02:42:47;;;;;;;7.43;2.58;;;;;;;4.59;100.00;99755.91;6176938;23;20108;-89
2023/01/15 02:45:16;;;;;;;6.88;2.75;;;;;;;4.48;100.00;99737.97;6178677;23;20564;-88
2023/01/15 02:47:43;;;;;;;9.10;2.97;;;;;;;4.55;100.00;99754.34;6150216;23;20513;-88
2023/01/15 02:50:13;;;;;;;6.00;2.75;;;;;;;4.45;100.00;99727.53;6177103;23;20005;-88
2023/01/15 02:52:43;;;;;;;7.90;2.65;;;;;;;4.47;100.00;99745.00;6151108;23;20485;-88
2023/01/15 02:55:22;;;;;;;10.10;3.10;;;;;;;4.41;100.00;99737.34;6177933;23;20530;-89
2023/01/15 02:57:48;;;;;;;11.70;3.50;;;;;;;4.45;100.00;99749.47;6176619;23;20005;-88
2023/01/15 03:00:16;;;;;;;10.48;3.13;;;;;;;4.34;100.00;99724.50;6151051;23;20337;-88
2023/01/15 03:02:48;;;;;;;8.95;3.00;;;;;;;4.36;100.00;99733.22;6177917;23;20005;-88
2023/01/15 03:05:22;;;;;;;10.02;2.95;;;;;;;4.42;100.00;99736.41;6180111;23;20087;-88
2023/01/15 03:07:53;;;;;;;;;;;;;;;4.26;100.00;99740.63;6155532;23;20020;-88
2023/01/15 03:10:25;;;;;;;11.48;3.00;;;;;;;4.43;100.00;99748.69;6179204;23;20350;-89
2023/01/15 03:13:03;;;;;;;10.60;3.00;;;;;;;4.43;100.00;99750.44;6189074;23;20001;-88
2023/01/15 03:18:20;;;;;;;10.63;2.95;;;;;;;4.38;100.00;99737.47;6195167;23;20043;-88
2023/01/15 03:20:50;;;;;;;9.23;2.85;;;;;;;4.36;100.00;99738.47;6186862;23;20020;-89
2023/01/15 03:23:18;;;;;;;11.98;3.22;;;;;;;4.36;100.00;99747.25;6189861;23;20001;-88
2023/01/15 03:25:48;;;;;;;11.25;2.80;;;;;;;4.41;100.00;99732.09;6158342;23;20009;-89
2023/01/15 03:28:16;;;;;;;10.55;2.72;;;;;;;4.46;100.00;99743.28;6180646;23;20011;-89
2023/01/15 03:30:42;;;;;;;8.70;3.00;;;;;;;4.40;100.00;99740.06;6180383;23;20449;-89
2023/01/15 03:33:10;;;;;;;10.20;2.80;;;;;;;4.41;100.00;99745.25;6181317;23;20004;-88
2023/01/15 03:35:43;;;;;;;10.80;3.10;;;;;;;4.42;100.00;99751.38;6187896;23;20081;-89
2023/01/15 03:38:10;;;;;;;12.90;3.38;;;;;;;4.41;100.00;99741.78;6192089;23;20604;-88
2023/01/15 03:40:42;;;;;;;8.23;2.78;;;;;;;4.35;100.00;99727.09;6202615;23;20028;-88
2023/01/15 03:46:03;;;;;;;11.52;3.05;;;;;;;4.28;100.00;99725.63;6209131;23;20040;-88
2023/01/15 03:48:37;;;;;;;12.68;2.92;;;;;;;4.37;100.00;99745.44;6183657;23;19997;-88
2023/01/15 03:51:25;;;;;;;8.93;2.60;;;;;;;4.32;100.00;99743.03;6210231;23;20017;-89
2023/01/15 03:53:55;;;;;;;16.15;3.30;;;;;;;4.32;100.00;99744.81;6201439;23;20087;-88
2023/01/15 03:56:54;;;;;;;10.23;2.83;;;;;;;4.27;100.00;99742.38;6184248;23;20011;-88
2023/01/15 03:59:29;;;;;;;11.73;3.10;;;;;;;4.23;100.00;99738.16;6184086;23;20009;-89
2023/01/15 04:01:57;;;;;;;11.15;2.60;;;;;;;4.29;100.00;99723.84;6185411;23;20442;-88
2023/01/15 04:04:25;;;;;;;9.45;2.70;;;;;;;4.32;100.00;99740.38;6183946;23;20009;-87
2023/01/15 04:06:52;;;;;;;12.93;3.15;;;;;;;4.34;100.00;99750.84;6183170;23;20084;-89
2023/01/15 04:09:18;;;;;;;10.93;3.08;;;;;;;4.32;100.00;99743.03;6180957;23;20411;-88
2023/01/15 04:11:43;;;;;;;9.70;2.88;;;;;;;4.34;100.00;99740.31;6180742;23;20009;-88
2023/01/15 04:14:12;;;;;;;11.80;4.28;;;;;;;4.33;100.00;99743.88;6180303;23;20012;-89
2023/01/15 04:16:38;;;;;;;12.02;3.85;;;;;;;4.33;100.00;99742.09;6179228;23;20560;-89
2023/01/15 04:19:03;;;;;;;12.63;3.03;;;;;;;4.37;100.00;99743.66;6180158;23;20005;-88
2023/01/15 04:21:29;;;;;;;8.68;2.92;;;;;;;4.29;100.00;99735.25;6153403;23;20040;-89
2023/01/15 04:23:55;;;;;;;10.43;3.30;;;;;;;4.28;100.00;99730.06;6203332;23;20096;-88
2023/01/15 04:26:20;;;;;;;10.90;3.00;;;;;;;4.31;100.00;99746.59;6206430;23;20070;-89
2023/01/15 04:28:45;;;;;;;14.25;3.55;;;;;;;4.34;100.00;99745.56;6206655;23;19996;-88
2023/01/15 04:31:11;;;;;;;13.95;3.03;;;;;;;4.23;100.00;99717.94;6206526;23;19997;-88
2023/01/15 04:33:37;;;;;;;13.75;3.13;;;;;;;4.35;100.00;99739.41;6207540;23;19997;-88
2023/01/15 04:36:03;;;;;;;10.57;2.88;;;;;;;4.33;100.00;99733.34;6206417;23;20076;-88
2023/01/15 04:38:29;;;;;;;8.02;2.55;;;;;;;4.35;100.00;99732.34;6204801;23;19997;-89
2023/01/15 04:46:23;;;;;;;9.27;2.85;;;;;;;4.33;100.00;99751.78;6182764;23;20071;-88
2023/01/15 04:48:49;;;;;;;12.93;3.05;;;;;;;4.27;100.00;99750.28;6183649;23;20008;-89
2023/01/15 04:51:15;;;;;;;14.85;3.55;;;;;;;4.37;100.00;99756.84;6182919;23;20001;-89
2023/01/15 04:53:40;;;;;;;10.95;3.17;;;;;;;4.30;100.00;99741.38;6183604;23;20024;-89
2023/01/15 04:56:06;;;;;;;13.65;3.50;;;;;;;4.37;100.00;99756.84;6182646;23;20008;-89
2023/01/15 04:58:33;;;;;;;10.65;2.88;;;;;;;4.34;100.00;99742.94;6181854;23;20470;-88
2023/01/15 05:01:02;;;;;;;14.07;3.83;;;;;;;4.49;100.00;99766.00;6154940;23;20005;-89
2023/01/15 05:03:28;;;;;;;15.50;3.55;;;;;;;4.49;100.00;99761.59;6156113;23;20309;-89
2023/01/15 05:05:53;;;;;;;11.60;2.85;;;;;;;4.45;100.00;99744.19;6157269;23;20005;-89
2023/01/15 05:08:18;;;;;;;9.32;2.75;;;;;;;4.47;100.00;99742.38;6182155;23;20009;-89
2023/01/15 05:10:44;;;;;;;16.10;3.65;;;;;;;4.41;100.00;99747.88;6182630;23;20013;-89
2023/01/15 05:13:09;;;;;;;10.65;3.47;;;;;;;4.35;100.00;99729.72;6180589;23;20001;-89
2023/01/15 05:15:37;;;;;;;8.88;2.85;;;;;;;4.41;100.00;99752.31;6180134;23;20005;-90
2023/01/15 05:18:03;;;;;;;11.10;2.97;;;;;;;4.49;100.00;99751.06;6152616;23;20049;-89
2023/01/15 05:20:28;;;;;;;11.27;2.90;;;;;;;4.44;100.00;99760.94;6153830;23;20666;-89
2023/01/15 05:22:53;;;;;;;10.48;3.13;;;;;;;4.34;100.00;99738.53;6180399;23;20009;-89
2023/01/15 05:25:18;;;;;;;11.02;3.25;;;;;;;4.43;100.00;99751.34;6180033;23;20005;-88
2023/01/15 05:27:44;;;;;;;11.35;3.40;;;;;;;4.48;100.00;99745.84;6178506;23;20076;-89
2023/01/15 05:30:10;;;;;;;13.27;2.95;;;;;;;4.48;100.00;99743.22;6179565;23;20016;-89
2023/01/15 05:32:35;;;;;;;10.23;2.67;;;;;;;4.49;100.00;99760.75;6151264;23;20011;-89
2023/01/15 05:35:00;;;;;;;12.25;3.47;;;;;;;4.49;100.00;99751.06;6178703;23;20001;-89
2023/01/15 05:37:29;;;;;;;8.45;2.90;;;;;;;4.50;100.00;99757.19;6176715;23;20005;-89
2023/01/15 05:39:54;;;;;;;11.20;3.55;;;;;;;4.48;100.00;99754.63;6177644;23;20005;-90
2023/01/15 05:42:19;;;;;;;14.93;4.07;;;;;;;4.45;100.00;99746.84;6177006;23;20089;-89
2023/01/15 05:44:44;;;;;;;14.23;3.30;;;;;;;4.51;100.00;99756.25;6179213;23;20062;-89
2023/01/15 05:47:10;;;;;;;15.10;3.38;;;;;;;4.49;100.00;99742.28;6178852;23;20020;-91
2023/01/15 05:49:35;;;;;;;10.82;3.15;;;;;;;4.50;100.00;99742.22;6177239;23;20005;-90
2023/01/15 05:52:00;;;;;;;16.45;3.13;;;;;;;4.53;100.00;99753.56;6176817;23;20011;-89
2023/01/15 05:54:30;;;;;;;12.13;3.30;;;;;;;4.53;100.00;99740.38;6176753;23;20343;-89
2023/01/15 05:56:56;;;;;;;9.55;2.92;;;;;;;4.53;100.00;99758.84;6177974;23;20063;-90
2023/01/15 05:59:24;;;;;;;8.60;3.10;;;;;;;4.48;100.00;99738.81;6176449;23;20017;-89
2023/01/15 06:01:50;;;;;;;10.85;3.35;;;;;;;4.40;100.00;99724.25;6177271;23;20008;-90
2023/01/15 06:04:19;;;;;;;8.45;3.05;;;;;;;4.43;100.00;99721.47;6150595;23;20085;-88
2023/01/15 06:06:45;;;;;;;10.38;2.85;;;;;;;4.44;100.00;99739.00;6180760;23;20009;-90
2023/01/15 06:09:10;;;;;;;10.02;3.58;;;;;;;4.48;100.00;99730.91;6185285;23;20070;-89
2023/01/15 06:11:36;;;;;;;11.57;3.17;;;;;;;4.46;100.00;99745.06;6191844;23;20001;-90
2023/01/15 06:14:01;;;;;;;13.23;3.28;;;;;;;4.42;100.00;99739.06;6195232;23;20028;-90
2023/01/15 06:16:27;;;;;;;9.18;2.85;;;;;;;4.42;100.00;99741.69;6203292;23;20021;-89
2023/01/15 06:18:52;;;;;;;8.52;2.70;;;;;;;4.33;100.00;99739.47;6205582;23;19989;-90
2023/01/15 06:21:18;;;;;;;11.70;3.05;;;;;;;4.34;100.00;99767.50;6191929;23;20063;-91
2023/01/15 06:23:43;;;;;;;10.63;3.67;;;;;;;4.37;100.00;99762.13;6179716;23;20005;-89
2023/01/15 06:26:15;;;;;;;12.25;3.72;;;;;;;4.31;100.00;99757.13;6179536;23;20005;-90
2023/01/15 06:28:40;;;;;;;7.20;2.70;;;;;;;4.35;100.00;99761.34;6179263;23;20001;-89
2023/01/15 06:31:08;;;;;;;9.50;3.42;;;;;;;4.35;100.00;99750.81;6180519;23;20063;-90
2023/01/15 06:33:34;;;;;;;9.88;3.00;;;;;;;4.31;100.00;99762.38;6180304;23;20105;-90
2023/01/15 06:36:26;;;;;;;8.75;2.60;;;;;;;4.29;100.00;99764.22;6180551;23;20076;-89
2023/01/15 06:38:51;;;;;;;9.20;3.00;;;;;;;4.25;100.00;99771.38;6171436;23;20013;-90
2023/01/15 06:49:39;;;;;;;;;;;;;;;4.20;100.00;99767.25;6178108;23;20083;-90
2023/01/15 06:52:05;;;;;;;10.15;3.03;;;;;;;4.18;100.00;99767.31;6192436;23;19908;-90
2023/01/15 06:54:31;;;;;;;8.68;2.67;;;;;;;4.16;100.00;99745.44;6201451;23;20028;-91
2023/01/15 06:56:56;;;;;;;11.02;3.20;;;;;;;4.17;100.00;99759.47;6203813;23;20028;-90
2023/01/15 06:59:22;;;;;;;10.23;2.70;;;;;;;4.18;100.00;99756.78;6201660;23;20009;-89
2023/01/15 07:01:47;;;;;;;7.90;2.75;;;;;;;4.08;100.00;99736.16;6203111;23;20016;-90
2023/01/15 07:04:13;;;;;;;6.88;2.47;;;;;;;4.15;100.00;99766.59;6204423;23;20048;-90
2023/01/15 07:06:39;;;;;;;10.40;2.80;;;;;;;4.08;100.00;99775.66;6204754;23;20004;-90
2023/01/15 07:09:04;;;;;;;8.50;2.88;;;;;;;3.92;100.00;99773.63;6205003;23;20013;-91
2023/01/15 07:11:29;;;;;;;9.32;2.90;;;;;;;4.06;100.00;99788.03;6198737;23;20001;-90
2023/01/15 07:14:04;;;;;;;11.10;3.08;;;;;;;3.95;100.00;99772.66;6188537;23;20005;-89
2023/01/15 07:16:34;;;;;;;8.40;2.67;;;;;;;4.05;100.00;99781.03;6183422;23;20091;-91
2023/01/15 07:19:00;;;;;;;7.63;2.53;;;;;;;4.05;100.00;99781.88;6184094;23;20001;-90
2023/01/15 07:21:26;;;;;;;7.38;2.47;;;;;;;3.96;100.00;99759.44;6183818;23;20033;-89
2023/01/15 07:23:52;;;;;;;9.80;2.90;;;;;;;4.05;100.00;99788.94;6185238;23;20032;-89
2023/01/15 07:26:17;;;;;;;11.60;2.70;;;;;;;4.00;100.00;99782.06;6197998;23;20350;-90
2023/01/15 07:28:42;;;;;;;12.65;3.08;;;;;;;4.08;100.00;99801.97;6197789;23;20020;-90
2023/01/15 07:31:07;;;;;;;8.10;2.83;;;;;;;4.05;100.00;99807.38;6204785;23;20016;-90
2023/01/15 07:33:33;;;;;;;7.78;2.90;;;;;;;4.13;100.00;99805.28;6197714;23;20001;-90
2023/01/15 07:36:01;;;;;;;8.70;2.22;;;;;;;4.07;100.00;99810.81;6198077;23;20028;-90
2023/01/15 07:38:27;;;;;;;13.00;2.97;;;;;;;4.08;100.00;99813.38;6153119;23;20346;-90
2023/01/15 07:51:55;;;;;;;6.35;2.55;;;;;;;3.82;100.00;99822.31;6180709;23;20393;-90
2023/01/15 07:54:20;;;;;;;9.45;2.67;;;;;;;3.83;100.00;99828.44;6179385;23;20001;-90
2023/01/15 07:56:45;;;;;;;5.93;2.78;;;;;;;3.87;100.00;99825.63;6180179;23;20011;-91
2023/01/15 07:59:11;;;;;;;10.55;3.53;;;;;;;3.95;100.00;99841.97;6179731;23;20021;-89
2023/01/15 08:01:36;;;;;;;6.20;2.50;;;;;;;3.88;100.00;99816.78;6178394;23;20438;-90
2023/01/15 08:04:01;;;;;;;8.43;2.65;;;;;;;3.87;100.00;99806.34;6179130;23;20032;-90
2023/01/15 08:06:27;;;;;;;6.97;2.53;;;;;;;3.86;100.00;99818.66;6178181;23;20066;-91
2023/01/15 08:08:52;;;;;;;6.75;2.88;;;;;;;3.93;100.00;99850.84;6181185;23;20009;-90
2023/01/15 08:16:45;;;;;;;;;;;;;;;3.79;100.00;99845.25;6181585;23;20063;-92
2023/01/15 08:19:10;;;;;;;9.15;2.92;;;;;;;3.70;100.00;99836.81;6180528;23;19904;-89
2023/01/15 08:21:36;;;;;;;8.80;2.83;;;;;;;3.61;100.00;99831.06;6153939;23;20009;-92
2023/01/15 08:24:01;;;;;;;5.53;2.50;;;;;;;3.55;100.00;99847.06;6188332;23;20005;-92
2023/01/15 08:26:26;;;;;;;6.40;2.63;;;;;;;3.57;100.00;99839.97;6188158;23;20009;-88
2023/01/15 08:28:52;;;;;;;6.45;2.30;;;;;;;3.52;100.00;99829.63;6196965;23;19992;-88
2023/01/15 08:31:17;;;;;;;7.45;2.13;;;;;;;3.59;100.00;99848.66;6202933;23;20020;-89
2023/01/15 08:33:42;;;;;;;4.45;2.08;;;;;;;3.63;100.00;99847.63;6204014;23;20040;-89
2023/01/15 08:36:08;;;;;;;5.50;2.30;;;;;;;3.64;100.00;99852.84;6196207;23;20009;-92
2023/01/15 08:38:33;;;;;;;9.90;2.92;;;;;;;3.64;100.00;99852.00;6181214;23;20009;-92
2023/01/15 08:40:58;;;;;;;8.48;2.53;;;;;;;3.55;100.00;99834.75;6180621;23;20143;-91
2023/01/15 08:43:25;;;;;;;7.32;2.83;;;;;;;3.56;100.00;99828.59;6180754;23;20249;-90
2023/01/15 08:45:51;;;;;;;8.80;2.28;;;;;;;3.50;100.00;99821.78;6183890;23;20005;-91
2023/01/15 08:48:17;;;;;;;5.90;2.70;;;;;;;3.59;100.00;99838.97;6182022;23;20415;-92
2023/01/15 08:50:42;;;;;;;10.18;3.15;;;;;;;3.62;100.00;99848.56;6180942;23;20008;-89
2023/01/15 08:53:07;;;;;;;8.32;2.63;;;;;;;3.60;100.00;99837.25;6182128;23;20001;-89
2023/01/15 08:55:32;;;;;;;8.40;2.47;;;;;;;3.68;100.00;99833.41;6179117;23;20028;-90
2023/01/15 08:57:58;;;;;;;7.15;2.70;;;;;;;3.69;100.00;99831.63;6180071;23;20110;-92
2023/01/15 09:00:23;;;;;;;6.60;2.35;;;;;;;3.65;100.00;99825.59;6180130;23;20445;-93
2023/01/15 09:02:49;;;;;;;8.25;2.40;;;;;;;3.73;100.00;99830.59;6154475;23;20001;-92
2023/01/15 09:05:15;;;;;;;7.82;2.55;;;;;;;3.77;100.00;99826.06;6158788;23;20005;-92
2023/01/15 09:07:40;;;;;;;8.57;2.53;;;;;;;3.77;100.00;99823.44;6195766;23;20019;-92
2023/01/15 09:10:06;;;;;;;9.43;2.75;;;;;;;3.82;100.00;99827.59;6188005;23;20079;-89
2023/01/15 09:12:31;;;;;;;6.82;2.80;;;;;;;3.86;100.00;99831.81;6190356;23;20000;-90
2023/01/15 09:14:56;;;;;;;8.90;2.70;;;;;;;3.78;100.00;99809.34;6203322;23;20005;-91
2023/01/15 09:17:22;;;;;;;8.18;2.83;;;;;;;3.93;100.00;99820.13;6203927;23;20023;-96
2023/01/15 09:19:47;;;;;;;11.05;3.10;;;;;;;3.84;100.00;99809.09;6176442;23;20036;-88
2023/01/15 09:22:13;;;;;;;6.72;2.90;;;;;;;3.97;100.00;99816.44;6203907;23;20077;-89
2023/01/15 09:24:38;;;;;;;8.43;2.50;;;;;;;4.02;100.00;99815.41;6201651;23;19996;-87
2023/01/15 09:27:03;;;;;;;5.88;2.50;;;;;;;4.07;100.00;99816.06;6201559;23;20000;-87
2023/01/15 09:29:28;;;;;;;8.43;3.45;;;;;;;4.13;100.00;99806.13;6183136;23;20032;-88
2023/01/15 09:31:54;;;;;;;9.68;3.58;;;;;;;4.14;100.00;99812.25;6182254;23;20024;-87
2023/01/15 09:34:19;;;;;;;9.07;2.70;;;;;;;4.27;100.00;99816.13;6182189;23;20051;-87
2023/01/15 09:36:45;;;;;;;10.25;2.60;;;;;;;4.38;99.68;99818.28;6181304;23;20005;-88
2023/01/15 09:39:10;;;;;;;8.88;2.97;;;;;;;4.50;99.47;99818.63;6180788;23;20326;-88
2023/01/15 09:42:14;;;;;;;13.95;3.83;;;;;;;4.74;97.90;99807.97;6180037;23;20009;-87
2023/01/15 09:45:06;;;;;;;7.65;3.13;;;;;;;4.87;97.88;99824.13;6178248;23;20013;-88
2023/01/15 09:48:10;;;;;;;7.72;2.30;;;;;;;4.71;97.04;99795.78;6152422;23;20032;-88
2023/01/15 09:51:10;;;;;;;7.85;2.72;;;;;;;5.02;96.65;99830.47;6122150;23;20009;-88
2023/01/15 09:53:53;;;;;;;8.18;2.80;;;;;;;5.20;93.18;99832.31;6178381;23;20001;-87
2023/01/15 09:56:23;;;;;;;11.88;2.95;;;;;;;5.18;93.43;99863.16;6148656;23;20052;-87
2023/01/15 09:58:50;;;;;;;10.95;2.90;;;;;;;5.07;93.08;99858.38;6176956;23;20019;-87
2023/01/15 10:01:19;;;;;;;7.45;2.70;;;;;;;4.91;93.49;99823.91;6178247;23;20411;-88
2023/01/15 10:03:51;;;;;;;5.95;2.55;;;;;;;5.08;92.65;99861.88;6179847;23;20012;-88
2023/01/15 10:06:29;;;;;;;11.50;2.65;;;;;;;5.16;94.41;99865.03;6151392;23;20005;-88
2023/01/15 10:09:16;;;;;;;10.75;2.67;;;;;;;5.19;94.08;99857.00;6177074;23;20067;-89
2023/01/15 10:14:53;;;;;;;9.93;2.97;;;;;;;5.20;93.27;99864.81;6179441;23;20020;-88
2023/01/15 10:17:24;;;;;;;7.30;2.53;;;;;;;5.27;92.15;99867.19;6179293;23;20029;-89
2023/01/15 10:19:51;;;;;;;12.35;3.60;;;;;;;5.32;90.83;99875.78;6151270;23;20013;-89
2023/01/15 10:22:34;;;;;;;8.45;2.60;;;;;;;5.48;89.88;99867.09;6177986;23;20013;-88
2023/01/15 10:25:04;;;;;;;8.60;3.20;;;;;;;5.53;89.45;99861.59;6178129;23;20786;-88
2023/01/15 10:27:33;;;;;;;15.90;3.03;;;;;;;5.48;90.15;99879.44;6178185;23;20028;-89
2023/01/15 10:30:12;;;;;;;9.38;2.80;;;;;;;5.46;90.18;99870.72;6177119;23;20062;-89
2023/01/15 10:32:53;;;;;;;9.80;2.70;;;;;;;5.61;90.24;99877.09;6177118;23;20012;-88
2023/01/15 10:35:37;;;;;;;8.43;3.33;;;;;;;5.62;91.12;99873.50;6152163;23;20008;-89
2023/01/15 10:38:28;;;;;;;9.23;3.13;;;;;;;5.55;90.54;99874.72;6175479;23;20009;-89
2023/01/15 10:40:56;;;;;;;8.85;3.30;;;;;;;5.50;90.24;99859.94;6177819;23;20072;-89
2023/01/15 10:44:02;;;;;;;6.03;2.60;;;;;;;5.40;90.20;99840.19;6177826;23;20096;-89
2023/01/15 10:46:32;;;;;;;7.55;2.60;;;;;;;5.38;90.12;99860.50;6163943;23;20012;-88
2023/01/15 10:49:03;;;;;;;8.90;2.70;;;;;;;5.35;89.37;99850.09;6194242;23;20012;-88
2023/01/15 10:51:48;;;;;;;7.35;2.78;;;;;;;5.45;89.18;99859.31;6186811;23;20016;-88
2023/01/15 10:54:22;;;;;;;7.53;2.80;;;;;;;5.40;88.44;99845.47;6186022;23;20011;-89
2023/01/15 10:57:10;;;;;;;5.82;2.80;;;;;;;5.37;88.94;99850.88;6202121;23;20088;-87
2023/01/15 10:59:41;;;;;;;7.55;2.53;;;;;;;5.45;88.78;99854.03;6199968;23;20015;-87
2023/01/15 11:02:22;;;;;;;4.97;2.20;;;;;;;5.49;88.95;99857.38;6182974;23;20036;-86
2023/01/15 11:04:47;;;;;;;5.53;2.22;;;;;;;5.57;87.37;99828.00;6177079;23;20063;-86
2023/01/15 11:07:13;;;;;;;6.85;2.40;;;;;;;5.62;86.96;99858.53;6180852;23;20005;-87
2023/01/15 11:09:40;;;;;;;8.18;2.40;;;;;;;5.59;87.47;99861.31;6179711;23;20019;-88
2023/01/15 11:20:30;;;;;;;7.28;2.53;;;;;;;5.63;87.07;99827.72;6179763;23;20236;-88
2023/01/15 11:23:04;;;;;;;4.00;2.28;;;;;;;5.62;85.79;99850.59;6177500;23;20013;-88
2023/01/15 11:25:31;;;;;;;6.32;1.88;;;;;;;5.61;86.53;99870.03;6177433;23;20020;-87
2023/01/15 11:28:03;;;;;;;7.05;2.20;;;;;;;5.59;86.51;99866.59;6179385;23;20005;-89
2023/01/15 11:30:36;;;;;;;4.85;1.98;;;;;;;5.60;86.30;99862.16;6178506;23;20005;-87
2023/01/15 11:33:04;;;;;;;4.63;1.90;;;;;;;5.62;86.46;99882.28;6178232;23;20024;-86
2023/01/15 11:35:31;;;;;;;4.40;1.88;;;;;;;5.79;86.23;99867.47;6179857;23;20055;-88
2023/01/15 11:38:11;;;;;;;2.40;1.60;;;;;;;5.86;85.80;99863.59;6179126;23;20170;-89
2023/01/15 11:40:37;;;;;;;5.18;2.10;;;;;;;5.82;85.69;99851.47;6175592;23;20100;-87
2023/01/15 11:51:46;;;;;;;6.40;1.90;;;;;;;5.88;84.20;99873.16;6115700;23;20002;-86
2023/01/15 11:54:14;;;;;;;4.90;1.90;;;;;;;5.89;84.93;99856.38;6114867;23;20129;-86
2023/01/15 11:56:42;;;;;;;6.25;1.95;;;;;;;5.88;85.45;99870.50;6113007;23;20018;-88
2023/01/15 11:59:18;;;;;;;6.30;2.42;;;;;;;5.80;85.54;99863.88;6107913;23;20013;-88
2023/01/15 12:01:58;;;;;;;10.30;2.33;;;;;;;5.68;85.52;99858.22;6092333;23;20080;-87
2023/01/15 12:04:23;;;;;;;7.07;2.22;;;;;;;5.74;85.02;99871.16;6091521;23;20007;-90
2023/01/15 12:06:49;;;;;;;5.63;1.75;;;;;;;5.85;83.94;99868.03;6093017;23;20089;-87
2023/01/15 12:09:35;;;;;;;3.53;1.80;;;;;;;5.87;84.92;99874.09;6089913;23;20066;-87
2023/01/15 12:12:09;;;;;;;4.45;2.10;;;;;;;5.80;85.60;99861.25;6090011;23;20085;-86
2023/01/15 12:14:48;;;;;;;6.05;2.20;;;;;;;5.86;84.60;99860.97;6088798;23;20038;-86
2023/01/15 12:17:47;;;;;;;4.72;2.08;;;;;;;5.95;85.65;99874.63;6090820;23;20089;-86
2023/01/15 12:20:31;;;;;;;6.78;2.22;;;;;;;6.06;85.00;99855.63;6089898;23;20405;-86
2023/01/15 12:23:48;;;;;;;5.47;2.00;;;;;;;6.20;85.76;99862.88;6089490;23;20021;-86
2023/01/15 12:26:28;;;;;;;5.13;2.00;;;;;;;6.08;84.19;99853.75;6006805;23;20008;-86
2023/01/15 12:29:04;;;;;;;6.18;2.10;;;;;;;6.07;83.69;99838.00;6088125;23;20565;-86
2023/01/15 12:31:37;;;;;;;5.15;1.92;;;;;;;6.01;83.37;99838.28;6089021;23;20011;-86
2023/01/15 12:34:32;;;;;;;6.07;2.00;;;;;;;5.84;85.10;99846.97;6089323;23;20007;-85
2023/01/15 12:37:21;;;;;;;6.43;2.25;;;;;;;5.85;84.83;99836.34;6072053;23;20014;-87
2023/01/15 12:40:14;;;;;;;6.97;2.40;;;;;;;5.81;85.43;99850.63;6076877;23;20017;-86
2023/01/15 12:45:33;;;;;;;6.72;2.13;;;;;;;5.71;87.47;99857.25;6085763;23;20028;-85
2023/01/15 12:48:11;;;;;;;7.65;2.40;;;;;;;5.59;90.17;99855.16;6086880;23;20468;-85